PWSweather.com
Personal Weather Stations
Station Observations
CANDIOTINO
Barrio Candioti Norte, Santa FeAR 3000

Barrio Candioti NorteSanta FeAR 3000

Lat: -31.632778, Lon: -60.695556

Elevation: 69

Station Type: WH-1081

http://www.eltiempoensantafe.com.ar

High Low Average
Temperature 53.4°F11.9°C 47.8°F8.8°C 50.9°F10.5°C
Dew Point 50.9°F10.5°C 43.4°F6.3°C 47.0°F8.3°C
Winds 13.6 mph 21.9 kmh 3.1 mph 5.0 kmh 7.0 mph SSE11.3 kmh SSE
Wind Gusts 22.8 mph36.7 kmh 7.6 mph12.2 kmh 15.0 mph24.1 kmh
Humidity 93% 78% 87%
Pressure 30.15 in1021.0 mb 30.00 in1015.9 mb -
Precipitation 0.34 in8.6 mm - -
Hour Temp Dew Point Humidity Winds Wind Gusts Pressure Precip Precip Rate Daily Precip Total
12:00 AM 50.0°F10.0°C 43.4°F6.3°C 78% 6.9 mph SSE11.1 kmh SSE 15.2 mph24.5 kmh 30.09 in1019.0 mb 0.00 in0.0 mm 0.00 in0.0 mm 0.00 in0.0 mm
12:15 AM 49.8°F9.9°C 44.2°F6.8°C 81% 6.0 mph SSE9.7 kmh SSE 20.6 mph33.2 kmh 30.10 in1019.3 mb 0.00 in0.0 mm 0.00 in0.0 mm 0.00 in0.0 mm
12:30 AM 49.1°F9.5°C 44.5°F6.9°C 84% 6.0 mph SSE9.7 kmh SSE 15.2 mph24.5 kmh 30.10 in1019.3 mb 0.00 in0.0 mm 0.00 in0.0 mm 0.00 in0.0 mm
12:45 AM 49.5°F9.7°C 45.1°F7.3°C 85% 6.9 mph S11.1 kmh S 13.0 mph20.9 kmh 30.11 in1019.6 mb 0.00 in0.0 mm 0.00 in0.0 mm 0.00 in0.0 mm
01:00 AM 49.6°F9.8°C 45.0°F7.2°C 84% 6.9 mph S11.1 kmh S 13.6 mph21.9 kmh 30.11 in1019.6 mb 0.00 in0.0 mm 0.00 in0.0 mm 0.00 in0.0 mm
01:15 AM 49.3°F9.6°C 44.7°F7.1°C 84% 7.6 mph S12.2 kmh S 12.1 mph19.5 kmh 30.10 in1019.3 mb 0.00 in0.0 mm 0.00 in0.0 mm 0.00 in0.0 mm
01:30 AM 48.6°F9.2°C 44.6°F7.0°C 86% 8.3 mph S13.4 kmh S 14.5 mph23.3 kmh 30.11 in1019.6 mb 0.00 in0.0 mm 0.00 in0.0 mm 0.00 in0.0 mm
01:45 AM 48.0°F8.9°C 44.9°F7.2°C 89% 9.2 mph S14.8 kmh S 14.5 mph23.3 kmh 30.10 in1019.3 mb 0.00 in0.0 mm 0.00 in0.0 mm 0.00 in0.0 mm
02:00 AM 47.8°F8.8°C 45.1°F7.3°C 90% 6.9 mph S11.1 kmh S 13.0 mph20.9 kmh 30.09 in1019.0 mb 0.00 in0.0 mm 0.00 in0.0 mm 0.00 in0.0 mm
02:15 AM 48.0°F8.9°C 45.5°F7.5°C 91% 6.9 mph S11.1 kmh S 13.6 mph21.9 kmh 30.09 in1019.0 mb 0.00 in0.0 mm 0.00 in0.0 mm 0.00 in0.0 mm
02:30 AM 48.0°F8.9°C 45.5°F7.5°C 91% 6.9 mph S11.1 kmh S 14.5 mph23.3 kmh 30.09 in1019.0 mb 0.01 in0.3 mm 0.04 in1.0 mm 0.01 in0.3 mm
02:45 AM 48.4°F9.1°C 45.6°F7.6°C 90% 6.9 mph SSE11.1 kmh SSE 12.1 mph19.5 kmh 30.07 in1018.3 mb 0.01 in0.3 mm 0.00 in0.0 mm 0.01 in0.3 mm
03:00 AM 48.6°F9.2°C 45.2°F7.3°C 88% 6.0 mph SSE9.7 kmh SSE 13.0 mph20.9 kmh 30.07 in1018.3 mb 0.01 in0.3 mm 0.00 in0.0 mm 0.01 in0.3 mm
03:15 AM 48.7°F9.3°C 45.3°F7.4°C 88% 6.9 mph S11.1 kmh S 15.2 mph24.5 kmh 30.07 in1018.3 mb 0.01 in0.3 mm 0.00 in0.0 mm 0.01 in0.3 mm
03:30 AM 48.7°F9.3°C 45.0°F7.2°C 87% 6.0 mph SSE9.7 kmh SSE 15.9 mph25.6 kmh 30.07 in1018.3 mb 0.00 in0.0 mm 0.00 in0.0 mm 0.01 in0.3 mm
03:45 AM 48.9°F9.4°C 45.2°F7.3°C 87% 7.6 mph SSE12.2 kmh SSE 14.5 mph23.3 kmh 30.06 in1017.9 mb 0.00 in0.0 mm 0.00 in0.0 mm 0.01 in0.3 mm
04:00 AM 49.1°F9.5°C 45.1°F7.3°C 86% 6.0 mph SSE9.7 kmh SSE 15.9 mph25.6 kmh 30.05 in1017.6 mb 0.00 in0.0 mm 0.00 in0.0 mm 0.01 in0.3 mm
04:15 AM 48.9°F9.4°C 44.9°F7.2°C 86% 8.3 mph SSE13.4 kmh SSE 19.7 mph31.7 kmh 30.04 in1017.3 mb 0.00 in0.0 mm 0.00 in0.0 mm 0.01 in0.3 mm
04:30 AM 48.9°F9.4°C 44.9°F7.2°C 86% 12.1 mph S19.5 kmh S 22.8 mph36.7 kmh 30.03 in1016.9 mb 0.00 in0.0 mm 0.00 in0.0 mm 0.01 in0.3 mm
04:45 AM 48.9°F9.4°C 44.9°F7.2°C 86% 10.7 mph SSE17.2 kmh SSE 22.1 mph35.6 kmh 30.00 in1015.9 mb 0.00 in0.0 mm 0.00 in0.0 mm 0.01 in0.3 mm
05:00 AM 48.7°F9.3°C 44.7°F7.1°C 86% 8.3 mph SE13.4 kmh SE 19.7 mph31.7 kmh 30.01 in1016.3 mb 0.00 in0.0 mm 0.00 in0.0 mm 0.01 in0.3 mm
05:15 AM 48.7°F9.3°C 44.7°F7.1°C 86% 12.1 mph SSE19.5 kmh SSE 22.1 mph35.6 kmh 30.00 in1015.9 mb 0.00 in0.0 mm 0.00 in0.0 mm 0.01 in0.3 mm
05:30 AM 48.7°F9.3°C 44.7°F7.1°C 86% 11.4 mph SE18.3 kmh SE 19.0 mph30.6 kmh 30.01 in1016.3 mb 0.00 in0.0 mm 0.00 in0.0 mm 0.01 in0.3 mm
05:45 AM 48.7°F9.3°C 44.7°F7.1°C 86% 6.9 mph SE11.1 kmh SE 19.7 mph31.7 kmh 30.01 in1016.3 mb 0.00 in0.0 mm 0.00 in0.0 mm 0.01 in0.3 mm
06:00 AM 48.9°F9.4°C 44.9°F7.2°C 86% 12.1 mph SSE19.5 kmh SSE 15.2 mph24.5 kmh 30.02 in1016.6 mb 0.00 in0.0 mm 0.00 in0.0 mm 0.01 in0.3 mm
06:15 AM 49.1°F9.5°C 44.8°F7.1°C 85% 13.6 mph SE21.9 kmh SE 17.4 mph28.0 kmh 30.03 in1016.9 mb 0.00 in0.0 mm 0.00 in0.0 mm 0.01 in0.3 mm
06:30 AM 48.9°F9.4°C 44.6°F7.0°C 85% 4.5 mph SSE7.2 kmh SSE 15.9 mph25.6 kmh 30.04 in1017.3 mb 0.00 in0.0 mm 0.00 in0.0 mm 0.01 in0.3 mm
06:45 AM 49.1°F9.5°C 44.8°F7.1°C 85% 7.6 mph SSE12.2 kmh SSE 14.5 mph23.3 kmh 30.04 in1017.3 mb 0.00 in0.0 mm 0.00 in0.0 mm 0.01 in0.3 mm
07:00 AM 49.1°F9.5°C 44.5°F6.9°C 84% 11.4 mph SE18.3 kmh SE 16.8 mph27.0 kmh 30.04 in1017.3 mb 0.00 in0.0 mm 0.00 in0.0 mm 0.01 in0.3 mm
07:15 AM 49.1°F9.5°C 44.5°F6.9°C 84% 5.4 mph SSE8.7 kmh SSE 15.2 mph24.5 kmh 30.04 in1017.3 mb 0.00 in0.0 mm 0.00 in0.0 mm 0.01 in0.3 mm
07:30 AM 48.9°F9.4°C 44.3°F6.8°C 84% 5.4 mph SSE8.7 kmh SSE 14.5 mph23.3 kmh 30.05 in1017.6 mb 0.00 in0.0 mm 0.00 in0.0 mm 0.01 in0.3 mm
07:45 AM 48.9°F9.4°C 44.6°F7.0°C 85% 9.8 mph SE15.8 kmh SE 14.5 mph23.3 kmh 30.06 in1017.9 mb 0.00 in0.0 mm 0.00 in0.0 mm 0.01 in0.3 mm
08:00 AM 48.9°F9.4°C 44.6°F7.0°C 85% 8.3 mph SSE13.4 kmh SSE 19.0 mph30.6 kmh 30.05 in1017.6 mb 0.00 in0.0 mm 0.00 in0.0 mm 0.01 in0.3 mm
08:15 AM 48.9°F9.4°C 44.6°F7.0°C 85% 10.7 mph SE17.2 kmh SE 16.8 mph27.0 kmh 30.06 in1017.9 mb 0.00 in0.0 mm 0.00 in0.0 mm 0.01 in0.3 mm
08:30 AM 48.9°F9.4°C 44.6°F7.0°C 85% 6.9 mph SSE11.1 kmh SSE 16.8 mph27.0 kmh 30.07 in1018.3 mb 0.00 in0.0 mm 0.00 in0.0 mm 0.01 in0.3 mm
08:45 AM 48.7°F9.3°C 44.7°F7.1°C 86% 8.3 mph SSE13.4 kmh SSE 16.8 mph27.0 kmh 30.07 in1018.3 mb 0.00 in0.0 mm 0.00 in0.0 mm 0.01 in0.3 mm
09:00 AM 48.9°F9.4°C 44.9°F7.2°C 86% 9.8 mph SSE15.8 kmh SSE 18.3 mph29.5 kmh 30.07 in1018.3 mb 0.00 in0.0 mm 0.00 in0.0 mm 0.01 in0.3 mm
09:15 AM 49.1°F9.5°C 45.1°F7.3°C 86% 6.0 mph SE9.7 kmh SE 21.3 mph34.3 kmh 30.07 in1018.3 mb 0.00 in0.0 mm 0.00 in0.0 mm 0.01 in0.3 mm
09:30 AM 49.5°F9.7°C 45.5°F7.5°C 86% 9.2 mph SSE14.8 kmh SSE 18.3 mph29.5 kmh 30.08 in1018.6 mb 0.00 in0.0 mm 0.00 in0.0 mm 0.01 in0.3 mm
09:45 AM 49.8°F9.9°C 45.5°F7.5°C 85% 6.9 mph SSE11.1 kmh SSE 15.9 mph25.6 kmh 30.08 in1018.6 mb 0.00 in0.0 mm 0.00 in0.0 mm 0.01 in0.3 mm
10:00 AM 50.0°F10.0°C 45.4°F7.4°C 84% 8.3 mph SSE13.4 kmh SSE 15.9 mph25.6 kmh 30.08 in1018.6 mb 0.00 in0.0 mm 0.00 in0.0 mm 0.01 in0.3 mm
10:15 AM 50.2°F10.1°C 45.5°F7.5°C 84% 6.9 mph SSE11.1 kmh SSE 18.3 mph29.5 kmh 30.09 in1019.0 mb 0.00 in0.0 mm 0.00 in0.0 mm 0.01 in0.3 mm
10:30 AM 50.4°F10.2°C 45.7°F7.6°C 84% 7.6 mph S12.2 kmh S 13.6 mph21.9 kmh 30.09 in1019.0 mb 0.00 in0.0 mm 0.00 in0.0 mm 0.01 in0.3 mm
10:45 AM 49.8°F9.9°C 45.5°F7.5°C 85% 9.2 mph S14.8 kmh S 15.2 mph24.5 kmh 30.09 in1019.0 mb 0.00 in0.0 mm 0.00 in0.0 mm 0.01 in0.3 mm
11:00 AM 49.8°F9.9°C 45.8°F7.7°C 86% 9.2 mph S14.8 kmh S 18.3 mph29.5 kmh 30.09 in1019.0 mb 0.00 in0.0 mm 0.00 in0.0 mm 0.01 in0.3 mm
11:15 AM 49.6°F9.8°C 45.6°F7.6°C 86% 8.3 mph S13.4 kmh S 15.9 mph25.6 kmh 30.10 in1019.3 mb 0.00 in0.0 mm 0.00 in0.0 mm 0.01 in0.3 mm
11:30 AM 50.0°F10.0°C 45.7°F7.6°C 85% 7.6 mph S12.2 kmh S 13.0 mph20.9 kmh 30.10 in1019.3 mb 0.00 in0.0 mm 0.00 in0.0 mm 0.01 in0.3 mm
11:45 AM 50.0°F10.0°C 45.7°F7.6°C 85% 5.4 mph SE8.7 kmh SE 12.1 mph19.5 kmh 30.10 in1019.3 mb 0.00 in0.0 mm 0.00 in0.0 mm 0.01 in0.3 mm
12:00 PM 50.2°F10.1°C 45.9°F7.7°C 85% 6.0 mph S9.7 kmh S 16.8 mph27.0 kmh 30.10 in1019.3 mb 0.00 in0.0 mm 0.00 in0.0 mm 0.01 in0.3 mm
12:15 PM 50.5°F10.3°C 46.2°F7.9°C 85% 6.0 mph S9.7 kmh S 14.5 mph23.3 kmh 30.11 in1019.6 mb 0.00 in0.0 mm 0.00 in0.0 mm 0.01 in0.3 mm
12:30 PM 51.1°F10.6°C 46.7°F8.2°C 85% 10.7 mph SSE17.2 kmh SSE 21.3 mph34.3 kmh 30.10 in1019.3 mb 0.00 in0.0 mm 0.00 in0.0 mm 0.01 in0.3 mm
12:45 PM 51.4°F10.8°C 46.8°F8.2°C 84% 11.4 mph SSE18.3 kmh SSE 17.4 mph28.0 kmh 30.10 in1019.3 mb 0.00 in0.0 mm 0.00 in0.0 mm 0.01 in0.3 mm
01:00 PM 52.0°F11.1°C 47.0°F8.3°C 83% 7.6 mph SSE12.2 kmh SSE 18.3 mph29.5 kmh 30.10 in1019.3 mb 0.00 in0.0 mm 0.00 in0.0 mm 0.01 in0.3 mm
01:15 PM 52.5°F11.4°C 47.5°F8.6°C 83% 6.9 mph SSE11.1 kmh SSE 14.5 mph23.3 kmh 30.10 in1019.3 mb 0.00 in0.0 mm 0.00 in0.0 mm 0.01 in0.3 mm
01:30 PM 52.5°F11.4°C 47.2°F8.4°C 82% 9.2 mph SSE14.8 kmh SSE 15.2 mph24.5 kmh 30.10 in1019.3 mb 0.00 in0.0 mm 0.00 in0.0 mm 0.01 in0.3 mm
01:45 PM 52.7°F11.5°C 47.4°F8.6°C 82% 6.0 mph S9.7 kmh S 13.0 mph20.9 kmh 30.09 in1019.0 mb 0.00 in0.0 mm 0.00 in0.0 mm 0.01 in0.3 mm
02:00 PM 52.9°F11.6°C 47.5°F8.6°C 82% 9.2 mph SSE14.8 kmh SSE 16.8 mph27.0 kmh 30.09 in1019.0 mb 0.00 in0.0 mm 0.00 in0.0 mm 0.01 in0.3 mm
02:15 PM 52.9°F11.6°C 47.9°F8.8°C 83% 10.7 mph SSE17.2 kmh SSE 15.2 mph24.5 kmh 30.08 in1018.6 mb 0.00 in0.0 mm 0.00 in0.0 mm 0.01 in0.3 mm
02:30 PM 52.9°F11.6°C 48.2°F9.0°C 84% 6.0 mph SSE9.7 kmh SSE 15.9 mph25.6 kmh 30.08 in1018.6 mb 0.00 in0.0 mm 0.00 in0.0 mm 0.01 in0.3 mm
02:45 PM 53.1°F11.7°C 48.4°F9.1°C 84% 9.8 mph SSE15.8 kmh SSE 15.9 mph25.6 kmh 30.07 in1018.3 mb 0.00 in0.0 mm 0.00 in0.0 mm 0.01 in0.3 mm
03:00 PM 52.9°F11.6°C 48.2°F9.0°C 84% 6.0 mph SSE9.7 kmh SSE 15.9 mph25.6 kmh 30.08 in1018.6 mb 0.00 in0.0 mm 0.00 in0.0 mm 0.01 in0.3 mm
03:15 PM 52.9°F11.6°C 48.5°F9.2°C 85% 6.0 mph S9.7 kmh S 11.4 mph18.3 kmh 30.07 in1018.3 mb 0.00 in0.0 mm 0.00 in0.0 mm 0.01 in0.3 mm
03:30 PM 52.7°F11.5°C 48.6°F9.2°C 86% 6.0 mph S9.7 kmh S 12.1 mph19.5 kmh 30.08 in1018.6 mb 0.00 in0.0 mm 0.00 in0.0 mm 0.01 in0.3 mm
03:45 PM 52.5°F11.4°C 48.8°F9.3°C 87% 8.3 mph S13.4 kmh S 16.8 mph27.0 kmh 30.07 in1018.3 mb 0.00 in0.0 mm 0.00 in0.0 mm 0.01 in0.3 mm
04:00 PM 52.5°F11.4°C 49.1°F9.5°C 88% 3.8 mph SSE6.1 kmh SSE 16.8 mph27.0 kmh 30.07 in1018.3 mb 0.01 in0.3 mm 0.01 in0.3 mm 0.02 in0.5 mm
04:15 PM 52.5°F11.4°C 49.4°F9.7°C 89% 8.3 mph S13.4 kmh S 13.0 mph20.9 kmh 30.07 in1018.3 mb 0.02 in0.5 mm 0.04 in1.0 mm 0.04 in1.0 mm
04:30 PM 52.5°F11.4°C 49.7°F9.8°C 90% 6.0 mph SSE9.7 kmh SSE 12.1 mph19.5 kmh 30.08 in1018.6 mb 0.05 in1.3 mm 0.12 in3.0 mm 0.06 in1.5 mm
04:45 PM 52.5°F11.4°C 50.0°F10.0°C 91% 7.6 mph S12.2 kmh S 10.7 mph17.2 kmh 30.08 in1018.6 mb 0.07 in1.8 mm 0.08 in2.0 mm 0.08 in2.0 mm
05:00 PM 52.7°F11.5°C 50.4°F10.2°C 92% 6.0 mph S9.7 kmh S 13.6 mph21.9 kmh 30.08 in1018.6 mb 0.08 in2.0 mm 0.01 in0.3 mm 0.11 in2.8 mm
05:15 PM 52.9°F11.6°C 50.6°F10.3°C 92% 7.6 mph SSE12.2 kmh SSE 13.0 mph20.9 kmh 30.08 in1018.6 mb 0.11 in2.8 mm 0.12 in3.0 mm 0.14 in3.6 mm
05:30 PM 53.1°F11.7°C 50.8°F10.4°C 92% 5.4 mph SSE8.7 kmh SSE 13.6 mph21.9 kmh 30.08 in1018.6 mb 0.09 in2.3 mm 0.00 in0.0 mm 0.15 in3.8 mm
05:45 PM 52.9°F11.6°C 50.9°F10.5°C 93% 5.4 mph S8.7 kmh S 13.0 mph20.9 kmh 30.09 in1019.0 mb 0.09 in2.3 mm 0.00 in0.0 mm 0.18 in4.6 mm
06:00 PM 52.9°F11.6°C 50.9°F10.5°C 93% 5.4 mph S8.7 kmh S 12.1 mph19.5 kmh 30.09 in1019.0 mb 0.09 in2.3 mm 0.00 in0.0 mm 0.20 in5.1 mm
06:15 PM 52.9°F11.6°C 50.9°F10.5°C 93% 6.9 mph S11.1 kmh S 14.5 mph23.3 kmh 30.10 in1019.3 mb 0.08 in2.0 mm 0.00 in0.0 mm 0.22 in5.6 mm
06:30 PM 52.9°F11.6°C 50.9°F10.5°C 93% 6.9 mph S11.1 kmh S 15.9 mph25.6 kmh 30.10 in1019.3 mb 0.09 in2.3 mm 0.04 in1.0 mm 0.25 in6.4 mm
06:45 PM 52.7°F11.5°C 50.4°F10.2°C 92% 5.4 mph SSE8.7 kmh SSE 13.6 mph21.9 kmh 30.10 in1019.3 mb 0.11 in2.8 mm 0.08 in2.0 mm 0.28 in7.1 mm
07:00 PM 52.5°F11.4°C 50.3°F10.2°C 92% 7.6 mph SSE12.2 kmh SSE 16.8 mph27.0 kmh 30.09 in1019.0 mb 0.09 in2.3 mm 0.00 in0.0 mm 0.30 in7.6 mm
07:15 PM 52.5°F11.4°C 50.3°F10.2°C 92% 5.4 mph SE8.7 kmh SE 13.6 mph21.9 kmh 30.10 in1019.3 mb 0.08 in2.0 mm 0.00 in0.0 mm 0.31 in7.9 mm
07:30 PM 52.7°F11.5°C 50.7°F10.4°C 93% 4.5 mph SSE7.2 kmh SSE 13.6 mph21.9 kmh 30.10 in1019.3 mb 0.06 in1.5 mm 0.00 in0.0 mm 0.31 in7.9 mm
07:45 PM 52.7°F11.5°C 50.7°F10.4°C 93% 3.8 mph SSE6.1 kmh SSE 9.8 mph15.8 kmh 30.10 in1019.3 mb 0.02 in0.5 mm 0.00 in0.0 mm 0.31 in7.9 mm
08:00 PM 52.7°F11.5°C 50.7°F10.4°C 93% 8.3 mph SSE13.4 kmh SSE 10.7 mph17.2 kmh 30.11 in1019.6 mb 0.02 in0.5 mm 0.00 in0.0 mm 0.32 in8.1 mm
08:15 PM 52.7°F11.5°C 50.4°F10.2°C 92% 3.1 mph S5.0 kmh S 8.3 mph13.4 kmh 30.11 in1019.6 mb 0.02 in0.5 mm 0.00 in0.0 mm 0.33 in8.4 mm
08:30 PM 52.7°F11.5°C 50.4°F10.2°C 92% 5.4 mph S8.7 kmh S 9.8 mph15.8 kmh 30.12 in1020.0 mb 0.02 in0.5 mm 0.00 in0.0 mm 0.33 in8.4 mm
08:45 PM 52.9°F11.6°C 50.6°F10.3°C 92% 6.0 mph S9.7 kmh S 9.8 mph15.8 kmh 30.13 in1020.3 mb 0.02 in0.5 mm 0.00 in0.0 mm 0.33 in8.4 mm
09:00 PM 52.9°F11.6°C 50.3°F10.2°C 91% 4.5 mph SSE7.2 kmh SSE 10.7 mph17.2 kmh 30.13 in1020.3 mb 0.01 in0.3 mm 0.00 in0.0 mm 0.33 in8.4 mm
09:15 PM 53.1°F11.7°C 49.9°F9.9°C 89% 3.8 mph SSE6.1 kmh SSE 9.8 mph15.8 kmh 30.14 in1020.7 mb 0.01 in0.3 mm 0.00 in0.0 mm 0.34 in8.6 mm
09:30 PM 53.2°F11.8°C 49.5°F9.7°C 87% 4.5 mph S7.2 kmh S 9.2 mph14.8 kmh 30.14 in1020.7 mb 0.01 in0.3 mm 0.00 in0.0 mm 0.34 in8.6 mm
09:45 PM 53.1°F11.7°C 49.0°F9.4°C 86% 3.8 mph S6.1 kmh S 9.2 mph14.8 kmh 30.14 in1020.7 mb 0.01 in0.3 mm 0.00 in0.0 mm 0.34 in8.6 mm
10:00 PM 53.1°F11.7°C 49.0°F9.4°C 86% 4.5 mph S7.2 kmh S 11.4 mph18.3 kmh 30.14 in1020.7 mb 0.01 in0.3 mm 0.00 in0.0 mm 0.34 in8.6 mm
10:15 PM 53.1°F11.7°C 49.0°F9.4°C 86% 4.5 mph S7.2 kmh S 9.2 mph14.8 kmh 30.15 in1021.0 mb 0.00 in0.0 mm 0.00 in0.0 mm 0.34 in8.6 mm
10:30 PM 53.1°F11.7°C 48.7°F9.3°C 85% 3.1 mph SSE5.0 kmh SSE 7.6 mph12.2 kmh 30.15 in1021.0 mb 0.00 in0.0 mm 0.00 in0.0 mm 0.34 in8.6 mm
10:45 PM 53.1°F11.7°C 48.7°F9.3°C 85% 5.4 mph SSE8.7 kmh SSE 9.8 mph15.8 kmh 30.15 in1021.0 mb 0.00 in0.0 mm 0.00 in0.0 mm 0.34 in8.6 mm
11:00 PM 53.2°F11.8°C 48.5°F9.2°C 84% 4.5 mph S7.2 kmh S 9.2 mph14.8 kmh 30.15 in1021.0 mb 0.00 in0.0 mm 0.00 in0.0 mm 0.34 in8.6 mm
11:15 PM 53.4°F11.9°C 48.4°F9.1°C 83% 6.0 mph S9.7 kmh S 12.1 mph19.5 kmh 30.15 in1021.0 mb 0.00 in0.0 mm 0.00 in0.0 mm 0.34 in8.6 mm
11:30 PM 53.2°F11.8°C 48.2°F9.0°C 83% 6.9 mph SSE11.1 kmh SSE 11.4 mph18.3 kmh 30.15 in1021.0 mb 0.00 in0.0 mm 0.00 in0.0 mm 0.34 in8.6 mm
11:45 PM 53.2°F11.8°C 48.2°F9.0°C 83% 6.0 mph SSE9.7 kmh SSE 9.2 mph14.8 kmh 30.15 in1021.0 mb 0.00 in0.0 mm 0.00 in0.0 mm 0.34 in8.6 mm